createdAt,value
2022-08-31T00:00:23.619Z,1006.33
2022-08-31T00:00:40.473Z,1006.53
2022-08-31T00:01:10.717Z,1006.53
2022-08-31T00:01:33.304Z,1006.33
2022-08-31T00:01:58.607Z,1006.33
2022-08-31T00:02:31.452Z,1006.33
2022-08-31T00:03:02.698Z,1006.43
2022-08-31T00:03:34.082Z,1006.43
2022-08-31T00:03:50.655Z,1006.43
2022-08-31T00:04:22.637Z,1006.43
2022-08-31T00:04:40.632Z,1006.33
2022-08-31T00:05:10.684Z,1006.33
2022-08-31T00:05:33.361Z,1006.33
2022-08-31T00:06:00.195Z,1006.33
2022-08-31T00:06:32.383Z,1006.33
2022-08-31T00:07:04.289Z,1006.43
2022-08-31T00:07:36.297Z,1006.53
2022-08-31T00:08:07.442Z,1006.53
2022-08-31T00:08:34.487Z,1006.33
2022-08-31T00:08:54.580Z,1006.33
2022-08-31T00:09:27.462Z,1006.33
2022-08-31T00:09:58.575Z,1006.33
2022-08-31T00:10:36.664Z,1006.33
2022-08-31T00:11:02.678Z,1006.33
2022-08-31T00:11:33.235Z,1006.33
2022-08-31T00:11:51.024Z,1006.33
2022-08-31T00:12:24.370Z,1006.33
2022-08-31T00:12:42.293Z,1006.53
2022-08-31T00:13:10.743Z,1006.53
2022-08-31T00:13:34.234Z,1006.33
2022-08-31T00:13:58.587Z,1006.33
2022-08-31T00:14:31.227Z,1006.33
2022-08-31T00:15:02.745Z,1006.43
2022-08-31T00:15:33.326Z,1006.33
2022-08-31T00:15:50.951Z,1006.33
2022-08-31T00:16:24.412Z,1006.33
2022-08-31T00:16:41.153Z,1006.33
2022-08-31T00:17:11.583Z,1006.33
2022-08-31T00:17:33.241Z,1006.43
2022-08-31T00:17:58.653Z,1006.43
2022-08-31T00:18:32.331Z,1006.43
2022-08-31T00:19:03.598Z,1006.43
2022-08-31T00:19:34.540Z,1006.64
2022-08-31T00:20:06.684Z,1006.64
2022-08-31T00:20:35.122Z,1006.64
2022-08-31T00:20:54.818Z,1006.64
2022-08-31T00:21:26.575Z,1006.64
2022-08-31T00:21:59.363Z,1006.53
2022-08-31T00:22:30.710Z,1006.53
2022-08-31T00:23:02.692Z,1006.33
2022-08-31T00:23:33.253Z,1006.64
2022-08-31T00:23:50.560Z,1006.64
2022-08-31T00:24:23.422Z,1006.64
2022-08-31T00:24:40.498Z,1006.53
2022-08-31T00:25:10.775Z,1006.53
2022-08-31T00:25:33.338Z,1006.64
2022-08-31T00:26:00.166Z,1006.64
2022-08-31T00:26:30.556Z,1006.64
2022-08-31T00:27:03.342Z,1006.64
2022-08-31T00:27:34.475Z,1006.64
2022-08-31T00:28:07.459Z,1006.64
2022-08-31T00:28:33.778Z,1006.84
2022-08-31T00:28:54.584Z,1006.84
2022-08-31T00:29:27.191Z,1006.84
2022-08-31T00:29:59.518Z,1006.84
2022-08-31T00:30:31.571Z,1006.84
2022-08-31T00:31:02.546Z,1006.64
2022-08-31T00:31:35.494Z,1006.64
2022-08-31T00:32:06.723Z,1006.64
2022-08-31T00:32:33.340Z,1006.64
2022-08-31T00:32:58.256Z,1006.64
2022-08-31T00:33:26.541Z,1006.64
2022-08-31T00:33:59.389Z,1006.84
2022-08-31T00:34:30.679Z,1006.84
2022-08-31T00:35:02.789Z,1006.84
2022-08-31T00:35:33.248Z,1006.64
2022-08-31T00:35:50.833Z,1006.64
2022-08-31T00:36:23.359Z,1006.64
2022-08-31T00:36:40.473Z,1006.64
2022-08-31T00:37:10.599Z,1006.64
2022-08-31T00:37:34.102Z,1006.64
2022-08-31T00:37:59.185Z,1006.64
2022-08-31T00:38:31.384Z,1006.64
2022-08-31T00:39:02.702Z,1006.64
2022-08-31T00:39:33.262Z,1006.84
2022-08-31T00:39:51.293Z,1006.84
2022-08-31T00:40:22.746Z,1006.84
2022-08-31T00:40:44.971Z,1006.53
2022-08-31T00:41:10.566Z,1006.53
2022-08-31T00:41:33.658Z,1006.53
2022-08-31T00:41:59.217Z,1006.53
2022-08-31T00:42:30.536Z,1006.53
2022-08-31T00:43:03.322Z,1006.64
2022-08-31T00:43:33.364Z,1006.64
2022-08-31T00:43:50.630Z,1006.64
2022-08-31T00:44:22.641Z,1006.64
2022-08-31T00:44:39.739Z,1006.64
2022-08-31T00:45:11.467Z,1006.64
2022-08-31T00:45:33.328Z,1006.64
2022-08-31T00:46:00.641Z,1006.64
2022-08-31T00:46:31.211Z,1006.64
2022-08-31T00:47:02.557Z,1006.43
2022-08-31T00:47:37.109Z,1006.64
2022-08-31T00:48:06.538Z,1006.64
2022-08-31T00:48:33.302Z,1006.43
2022-08-31T00:49:10.849Z,1006.43
2022-08-31T00:49:35.050Z,1006.64
2022-08-31T00:49:59.409Z,1006.64
2022-08-31T00:50:30.730Z,1006.64
2022-08-31T00:51:03.410Z,1006.64
2022-08-31T00:51:33.246Z,1006.74
2022-08-31T00:51:50.571Z,1006.74
2022-08-31T00:52:23.941Z,1006.74
2022-08-31T00:52:41.869Z,1006.74
2022-08-31T00:53:11.270Z,1006.74
2022-08-31T00:53:33.288Z,1006.64
2022-08-31T00:53:58.569Z,1006.64
2022-08-31T00:54:31.343Z,1006.64
2022-08-31T00:55:03.770Z,1006.64
2022-08-31T00:55:34.235Z,1006.74
2022-08-31T00:56:06.572Z,1006.74
2022-08-31T00:56:33.261Z,1006.64
2022-08-31T00:56:55.335Z,1006.64
2022-08-31T00:57:34.137Z,1006.64
2022-08-31T00:57:58.652Z,1006.74
2022-08-31T00:58:30.539Z,1006.74
2022-08-31T00:59:03.394Z,1006.64
2022-08-31T00:59:33.354Z,1006.74
2022-08-31T00:59:50.716Z,1006.74
2022-08-31T01:00:23.463Z,1006.74
2022-08-31T01:00:41.284Z,1006.53
2022-08-31T01:01:10.565Z,1006.53
2022-08-31T01:01:33.293Z,1006.64
2022-08-31T01:01:58.603Z,1006.64
2022-08-31T01:02:31.310Z,1006.64
2022-08-31T01:03:02.680Z,1006.64
2022-08-31T01:03:34.261Z,1006.74
2022-08-31T01:04:06.537Z,1006.74
2022-08-31T01:04:33.560Z,1006.64
2022-08-31T01:04:54.619Z,1006.64
2022-08-31T01:05:26.747Z,1006.64
2022-08-31T01:05:59.391Z,1006.74
2022-08-31T01:06:30.605Z,1006.74
2022-08-31T01:07:02.937Z,1006.74
2022-08-31T01:07:33.254Z,1006.74
2022-08-31T01:07:50.588Z,1006.74
2022-08-31T01:08:27.103Z,1006.74
2022-08-31T01:08:40.394Z,1006.64
2022-08-31T01:09:10.537Z,1006.64
2022-08-31T01:09:34.162Z,1006.53
2022-08-31T01:09:59.271Z,1006.53
2022-08-31T01:10:31.704Z,1006.53
2022-08-31T01:11:03.296Z,1006.74
2022-08-31T01:11:33.369Z,1006.53
2022-08-31T01:11:50.651Z,1006.53
2022-08-31T01:12:22.654Z,1006.53
2022-08-31T01:12:39.735Z,1006.64
2022-08-31T01:13:12.261Z,1006.64
2022-08-31T01:13:33.243Z,1006.64
2022-08-31T01:13:58.545Z,1006.64
2022-08-31T01:14:31.341Z,1006.64
2022-08-31T01:15:02.796Z,1006.84
2022-08-31T01:15:34.246Z,1006.64
2022-08-31T01:16:06.592Z,1006.64
2022-08-31T01:16:33.458Z,1006.64
2022-08-31T01:16:55.228Z,1006.64
2022-08-31T01:17:26.653Z,1006.64
2022-08-31T01:17:59.373Z,1007.01
2022-08-31T01:18:30.559Z,1007.01
2022-08-31T01:19:02.678Z,1006.64
2022-08-31T01:19:35.747Z,1006.64
2022-08-31T01:20:06.660Z,1006.64
2022-08-31T01:20:35.473Z,1006.74
2022-08-31T01:20:54.675Z,1006.74
2022-08-31T01:21:27.328Z,1006.74
2022-08-31T01:21:59.050Z,1006.94
2022-08-31T01:22:30.542Z,1006.94
2022-08-31T01:23:02.525Z,1006.74
2022-08-31T01:23:33.356Z,1006.64
2022-08-31T01:23:51.354Z,1006.64
2022-08-31T01:24:22.668Z,1006.64
2022-08-31T01:24:40.547Z,1006.64
2022-08-31T01:25:11.540Z,1006.64
2022-08-31T01:25:33.900Z,1006.74
2022-08-31T01:25:58.887Z,1006.74
2022-08-31T01:26:30.640Z,1006.74
2022-08-31T01:27:02.544Z,1006.74
2022-08-31T01:27:33.749Z,1006.64
2022-08-31T01:28:05.964Z,1006.64
2022-08-31T01:28:23.217Z,1006.64
2022-08-31T01:28:41.478Z,1006.74
2022-08-31T01:29:10.544Z,1006.74
2022-08-31T01:29:33.334Z,1006.74
2022-08-31T01:29:58.521Z,1006.74
2022-08-31T01:30:30.793Z,1006.74
2022-08-31T01:31:02.617Z,1006.84
2022-08-31T01:31:33.330Z,1006.64
2022-08-31T01:32:06.529Z,1006.64
2022-08-31T01:32:33.277Z,1006.94
2022-08-31T01:32:54.690Z,1006.94
2022-08-31T01:33:27.265Z,1006.94
2022-08-31T01:33:58.556Z,1006.84
2022-08-31T01:34:30.581Z,1006.84
2022-08-31T01:35:02.683Z,1006.94
2022-08-31T01:35:33.304Z,1006.84
2022-08-31T01:35:51.385Z,1006.84
2022-08-31T01:36:22.520Z,1006.84
2022-08-31T01:36:39.650Z,1007.01
2022-08-31T01:37:11.497Z,1007.01
2022-08-31T01:37:36.437Z,1006.74
2022-08-31T01:37:58.621Z,1006.74
2022-08-31T01:38:30.565Z,1006.74
2022-08-31T01:39:02.587Z,1006.74
2022-08-31T01:39:33.372Z,1006.94
2022-08-31T01:39:50.629Z,1006.94
2022-08-31T01:40:23.514Z,1006.94
2022-08-31T01:40:40.714Z,1007.01
2022-08-31T01:41:10.546Z,1007.01
2022-08-31T01:41:33.242Z,1006.94
2022-08-31T01:41:58.601Z,1006.94
2022-08-31T01:42:33.301Z,1006.94
2022-08-31T01:43:02.570Z,1006.84
2022-08-31T01:43:34.383Z,1006.94
2022-08-31T01:44:06.653Z,1006.94
2022-08-31T01:44:34.305Z,1006.84
2022-08-31T01:44:54.602Z,1006.84
2022-08-31T01:45:27.468Z,1006.84
2022-08-31T01:45:58.525Z,1007.01
2022-08-31T01:46:30.660Z,1007.01
2022-08-31T01:47:02.750Z,1007.01
2022-08-31T01:47:33.248Z,1007.01
2022-08-31T01:47:53.546Z,1007.01
2022-08-31T01:48:22.543Z,1007.01
2022-08-31T01:48:41.549Z,1006.94
2022-08-31T01:49:10.605Z,1006.94
2022-08-31T01:49:34.554Z,1007.01
2022-08-31T01:49:59.318Z,1007.01
2022-08-31T01:50:30.699Z,1007.01
2022-08-31T01:51:02.505Z,1007.01
2022-08-31T01:51:33.367Z,1006.94
2022-08-31T01:51:50.627Z,1006.94
2022-08-31T01:52:25.212Z,1006.94
2022-08-31T01:52:54.500Z,1006.74
2022-08-31T01:53:26.501Z,1006.74
2022-08-31T01:53:59.220Z,1006.94
2022-08-31T01:54:30.566Z,1006.94
2022-08-31T01:55:03.408Z,1007.11
2022-08-31T01:55:33.302Z,1006.94
2022-08-31T01:55:50.922Z,1006.94
2022-08-31T01:56:22.548Z,1006.94
2022-08-31T01:56:41.471Z,1007.01
2022-08-31T01:57:11.231Z,1007.01
2022-08-31T01:57:33.457Z,1006.94
2022-08-31T01:57:58.543Z,1006.94
2022-08-31T01:58:30.622Z,1006.94
2022-08-31T01:59:07.646Z,1007.11
2022-08-31T01:59:33.249Z,1006.84
2022-08-31T01:59:50.509Z,1006.84
2022-08-31T02:00:23.841Z,1006.84
2022-08-31T02:00:41.184Z,1006.84
2022-08-31T02:01:33.943Z,1006.84
2022-08-31T02:01:42.590Z,1006.84
2022-08-31T02:02:14.597Z,1006.84
2022-08-31T02:02:33.711Z,1006.84
2022-08-31T02:03:02.635Z,1006.84
2022-08-31T02:03:33.962Z,1007.01
2022-08-31T02:03:50.474Z,1007.01
2022-08-31T02:04:22.532Z,1007.01
2022-08-31T02:04:40.560Z,1006.94
2022-08-31T02:05:11.741Z,1006.94
2022-08-31T02:05:33.264Z,1006.94
2022-08-31T02:06:30.511Z,1006.94
2022-08-31T02:07:03.291Z,1007.01
2022-08-31T02:07:33.407Z,1007.01
2022-08-31T02:07:50.591Z,1007.01
2022-08-31T02:08:22.516Z,1007.01
2022-08-31T02:08:39.631Z,1006.94
2022-08-31T02:09:11.315Z,1006.94
2022-08-31T02:09:33.269Z,1006.84
2022-08-31T02:09:59.541Z,1006.84
2022-08-31T02:10:30.746Z,1006.84
2022-08-31T02:11:02.508Z,1006.74
2022-08-31T02:11:35.052Z,1006.84
2022-08-31T02:12:06.553Z,1006.84
2022-08-31T02:12:33.366Z,1006.74
2022-08-31T02:12:54.634Z,1006.74
2022-08-31T02:13:27.203Z,1006.74
2022-08-31T02:13:58.584Z,1006.84
2022-08-31T02:14:31.306Z,1006.84
2022-08-31T02:15:03.765Z,1006.84
2022-08-31T02:15:34.166Z,1007.01
2022-08-31T02:16:07.237Z,1007.01
2022-08-31T02:16:33.298Z,1006.94
2022-08-31T02:16:54.611Z,1006.94
2022-08-31T02:17:26.565Z,1006.94
2022-08-31T02:17:59.262Z,1006.74
2022-08-31T02:18:30.507Z,1006.74
2022-08-31T02:19:03.297Z,1006.84
2022-08-31T02:19:33.401Z,1006.74
2022-08-31T02:19:50.603Z,1006.74
2022-08-31T02:20:22.661Z,1006.74
2022-08-31T02:20:39.654Z,1006.64
2022-08-31T02:21:11.318Z,1006.64
2022-08-31T02:21:36.819Z,1006.84
2022-08-31T02:21:58.613Z,1006.84
2022-08-31T02:22:30.519Z,1006.84
2022-08-31T02:23:02.515Z,1006.94
2022-08-31T02:23:33.404Z,1006.84
2022-08-31T02:23:50.569Z,1006.84
2022-08-31T02:24:23.251Z,1006.84
2022-08-31T02:24:40.312Z,1007.01
2022-08-31T02:25:10.599Z,1007.01
2022-08-31T02:25:33.315Z,1006.74
2022-08-31T02:25:58.758Z,1006.74
2022-08-31T02:26:31.202Z,1006.74
2022-08-31T02:27:18.475Z,1006.74
2022-08-31T02:27:51.860Z,1006.74
2022-08-31T02:28:22.608Z,1006.74
2022-08-31T02:28:40.904Z,1006.74
2022-08-31T02:29:10.528Z,1006.74
2022-08-31T02:29:34.682Z,1006.94
2022-08-31T02:29:59.346Z,1006.94
2022-08-31T02:30:31.540Z,1006.94
2022-08-31T02:31:03.819Z,1007.01
2022-08-31T02:31:33.343Z,1006.84
2022-08-31T02:31:50.537Z,1006.84
2022-08-31T02:32:22.527Z,1006.84
2022-08-31T02:32:40.390Z,1007.01
2022-08-31T02:33:10.603Z,1007.01
2022-08-31T02:33:33.284Z,1007.01
2022-08-31T02:33:58.513Z,1007.01
2022-08-31T02:34:30.514Z,1007.01
2022-08-31T02:35:03.502Z,1006.84
2022-08-31T02:35:33.370Z,1006.84
2022-08-31T02:35:53.614Z,1006.84
2022-08-31T02:36:22.515Z,1006.84
2022-08-31T02:36:39.683Z,1006.94
2022-08-31T02:37:11.390Z,1006.94
2022-08-31T02:37:34.000Z,1007.01
2022-08-31T02:37:58.601Z,1007.01
2022-08-31T02:38:31.312Z,1007.01
2022-08-31T02:39:02.515Z,1006.84
2022-08-31T02:39:38.502Z,1007.01
2022-08-31T02:40:06.873Z,1007.01
2022-08-31T02:40:33.737Z,1006.94
2022-08-31T02:40:54.624Z,1006.94
2022-08-31T02:41:26.477Z,1006.94
2022-08-31T02:41:59.367Z,1006.84
2022-08-31T02:42:33.046Z,1006.84
2022-08-31T02:43:03.167Z,1007.11
2022-08-31T02:43:33.257Z,1007.01
2022-08-31T02:43:50.836Z,1007.01
2022-08-31T02:44:22.563Z,1007.01
2022-08-31T02:44:39.608Z,1007.01
2022-08-31T02:45:11.384Z,1007.01
2022-08-31T02:45:33.331Z,1007.01
2022-08-31T02:45:58.685Z,1007.01
2022-08-31T02:46:31.362Z,1007.01
2022-08-31T02:47:02.526Z,1006.94
2022-08-31T02:47:33.345Z,1007.21
2022-08-31T02:47:51.584Z,1007.21
2022-08-31T02:48:22.520Z,1007.21
2022-08-31T02:48:40.519Z,1006.84
2022-08-31T02:49:10.528Z,1006.84
2022-08-31T02:49:33.265Z,1007.21
2022-08-31T02:49:59.171Z,1007.21
2022-08-31T02:50:31.190Z,1007.21
2022-08-31T02:51:04.374Z,1006.94
2022-08-31T02:51:33.287Z,1007.01
2022-08-31T02:51:51.524Z,1007.01
2022-08-31T02:52:22.626Z,1007.01
2022-08-31T02:52:41.325Z,1007.11
2022-08-31T02:53:11.213Z,1007.11
2022-08-31T02:53:33.350Z,1006.94
2022-08-31T02:53:58.482Z,1006.94
2022-08-31T02:54:31.579Z,1006.94
2022-08-31T02:55:03.598Z,1006.84
2022-08-31T02:55:34.186Z,1006.84
2022-08-31T02:56:06.541Z,1006.84
2022-08-31T02:56:33.309Z,1007.01
2022-08-31T02:56:54.541Z,1007.01
2022-08-31T02:57:26.585Z,1007.01
2022-08-31T02:57:59.283Z,1007.11
2022-08-31T02:58:30.461Z,1007.11
2022-08-31T02:59:03.374Z,1006.94
2022-08-31T02:59:34.971Z,1006.74
2022-08-31T03:00:06.681Z,1006.74
2022-08-31T03:00:33.271Z,1006.94
2022-08-31T03:00:54.593Z,1006.94
2022-08-31T03:01:28.246Z,1006.94
2022-08-31T03:01:58.738Z,1006.94
2022-08-31T03:02:32.192Z,1006.94
2022-08-31T03:03:02.548Z,1007.01
2022-08-31T03:03:33.347Z,1007.01
2022-08-31T03:03:52.682Z,1007.01
2022-08-31T03:04:23.355Z,1007.01
2022-08-31T03:04:41.270Z,1007.01
2022-08-31T03:05:11.425Z,1007.01
2022-08-31T03:05:33.310Z,1006.94
2022-08-31T03:05:58.634Z,1006.94
2022-08-31T03:06:31.861Z,1006.94
2022-08-31T03:07:02.532Z,1006.84
2022-08-31T03:07:36.014Z,1006.84
2022-08-31T03:08:08.733Z,1006.84
2022-08-31T03:08:33.261Z,1006.94
2022-08-31T03:08:55.262Z,1006.94
2022-08-31T03:09:26.495Z,1006.94
2022-08-31T03:09:59.251Z,1006.74
2022-08-31T03:10:31.623Z,1006.74
2022-08-31T03:11:04.173Z,1007.01
2022-08-31T03:11:33.272Z,1007.01
2022-08-31T03:11:50.457Z,1007.01
2022-08-31T03:12:23.658Z,1007.01
2022-08-31T03:12:40.915Z,1006.74
2022-08-31T03:13:10.622Z,1006.74
2022-08-31T03:13:34.201Z,1007.01
2022-08-31T03:13:59.379Z,1007.01
2022-08-31T03:14:31.302Z,1007.01
2022-08-31T03:15:02.584Z,1006.94
2022-08-31T03:15:35.276Z,1006.74
2022-08-31T03:16:06.630Z,1006.74
2022-08-31T03:16:34.141Z,1006.84
2022-08-31T03:16:55.274Z,1006.84
2022-08-31T03:17:26.460Z,1006.84
2022-08-31T03:17:59.418Z,1006.74
2022-08-31T03:18:31.630Z,1006.74
2022-08-31T03:19:03.226Z,1006.94
2022-08-31T03:19:34.207Z,1006.94
2022-08-31T03:20:06.692Z,1006.94
2022-08-31T03:20:34.769Z,1006.94
2022-08-31T03:20:54.660Z,1006.94
2022-08-31T03:21:27.136Z,1006.94
2022-08-31T03:21:58.448Z,1007.11
2022-08-31T03:22:31.364Z,1007.11
2022-08-31T03:23:04.672Z,1007.21
2022-08-31T03:23:34.068Z,1007.11
2022-08-31T03:24:06.505Z,1007.11
2022-08-31T03:24:35.466Z,1007.11
2022-08-31T03:24:54.697Z,1007.11
2022-08-31T03:25:26.731Z,1007.11
2022-08-31T03:25:59.167Z,1007.01
2022-08-31T03:26:31.401Z,1007.01
2022-08-31T03:27:05.553Z,1006.94
2022-08-31T03:27:34.417Z,1006.74
2022-08-31T03:28:07.322Z,1006.74
2022-08-31T03:28:33.404Z,1007.01
2022-08-31T03:28:55.299Z,1007.01
2022-08-31T03:29:27.253Z,1007.01
2022-08-31T03:29:58.523Z,1007.01
2022-08-31T03:30:32.414Z,1007.01
2022-08-31T03:31:02.650Z,1006.94
2022-08-31T03:31:37.766Z,1007.01
2022-08-31T03:32:06.494Z,1007.01
2022-08-31T03:32:33.276Z,1007.01
2022-08-31T03:33:00.959Z,1007.01
2022-08-31T03:33:26.497Z,1007.01
2022-08-31T03:33:59.453Z,1007.01
2022-08-31T03:34:30.440Z,1007.01
2022-08-31T03:35:02.708Z,1007.11
2022-08-31T03:35:33.282Z,1007.01
2022-08-31T03:35:50.564Z,1007.01
2022-08-31T03:36:23.280Z,1007.01
2022-08-31T03:36:40.863Z,1007.11
2022-08-31T03:37:10.580Z,1007.11
2022-08-31T03:37:35.159Z,1007.01
2022-08-31T03:37:59.186Z,1007.01
2022-08-31T03:38:30.466Z,1007.01
2022-08-31T03:39:03.362Z,1007.11
2022-08-31T03:39:33.390Z,1007.11
2022-08-31T03:39:50.523Z,1007.11
2022-08-31T03:40:23.472Z,1007.11
2022-08-31T03:40:40.539Z,1006.94
2022-08-31T03:41:10.440Z,1006.94
2022-08-31T03:41:35.077Z,1007.11
2022-08-31T03:41:59.176Z,1007.11
2022-08-31T03:42:32.085Z,1007.11
2022-08-31T03:43:02.459Z,1007.01
2022-08-31T03:43:33.328Z,1006.94
2022-08-31T03:43:50.435Z,1006.94
2022-08-31T03:44:23.130Z,1006.94
2022-08-31T03:44:40.872Z,1006.94
2022-08-31T03:45:10.659Z,1006.94
2022-08-31T03:45:33.375Z,1006.94
2022-08-31T03:45:58.780Z,1006.94
2022-08-31T03:46:31.392Z,1006.94
2022-08-31T03:47:02.533Z,1007.01
2022-08-31T03:47:34.951Z,1007.11
2022-08-31T03:48:11.412Z,1007.11
2022-08-31T03:48:34.585Z,1006.94
2022-08-31T03:48:55.257Z,1006.94
2022-08-31T03:49:26.564Z,1006.94
2022-08-31T03:49:59.184Z,1007.01
2022-08-31T03:50:31.579Z,1007.01
2022-08-31T03:51:04.198Z,1007.01
2022-08-31T03:51:33.380Z,1006.94
2022-08-31T03:51:50.501Z,1006.94
2022-08-31T03:52:22.459Z,1006.94
2022-08-31T03:52:39.566Z,1006.94
2022-08-31T03:53:11.335Z,1006.94
2022-08-31T03:53:34.187Z,1007.01
2022-08-31T03:53:58.513Z,1007.01
2022-08-31T03:54:30.449Z,1007.01
2022-08-31T03:55:02.589Z,1006.94
2022-08-31T03:55:34.874Z,1007.11
2022-08-31T03:56:06.556Z,1007.11
2022-08-31T03:56:34.173Z,1007.11
2022-08-31T03:56:54.499Z,1007.11
2022-08-31T03:57:28.134Z,1007.11
2022-08-31T03:57:58.444Z,1007.11
2022-08-31T03:58:31.287Z,1007.11
2022-08-31T03:59:02.579Z,1007.21
2022-08-31T03:59:33.973Z,1007.11
2022-08-31T03:59:50.481Z,1007.11
2022-08-31T04:00:22.595Z,1007.11
2022-08-31T04:00:40.496Z,1006.94
2022-08-31T04:01:11.579Z,1006.94
2022-08-31T04:01:34.407Z,1007.11
2022-08-31T04:01:58.453Z,1007.11
2022-08-31T04:02:37.352Z,1007.11
2022-08-31T04:03:02.611Z,1007.01
2022-08-31T04:03:34.672Z,1007.11
2022-08-31T04:04:06.480Z,1007.11
2022-08-31T04:04:33.265Z,1006.94
2022-08-31T04:04:54.471Z,1006.94
2022-08-31T04:05:26.775Z,1006.94
2022-08-31T04:05:59.159Z,1007.01
2022-08-31T04:06:32.071Z,1007.01
2022-08-31T04:07:03.208Z,1006.94
2022-08-31T04:07:42.039Z,1007.01
2022-08-31T04:08:06.589Z,1007.01
2022-08-31T04:08:34.371Z,1007.11
2022-08-31T04:08:54.450Z,1007.11
2022-08-31T04:09:27.403Z,1007.11
2022-08-31T04:09:59.431Z,1007.01
2022-08-31T04:10:31.751Z,1007.01
2022-08-31T04:11:02.533Z,1007.01
2022-08-31T04:11:44.768Z,1007.01
2022-08-31T04:11:52.200Z,1007.01
2022-08-31T04:12:22.483Z,1007.01
2022-08-31T04:12:40.351Z,1007.31
2022-08-31T04:13:10.537Z,1007.31
2022-08-31T04:13:33.331Z,1007.01
2022-08-31T04:13:58.487Z,1007.01
2022-08-31T04:14:30.878Z,1007.01
2022-08-31T04:15:03.377Z,1006.84
2022-08-31T04:15:33.406Z,1006.84
2022-08-31T04:15:50.936Z,1006.84
2022-08-31T04:16:25.239Z,1006.84
2022-08-31T04:16:54.550Z,1007.01
2022-08-31T04:17:28.087Z,1007.01
2022-08-31T04:18:14.899Z,1007.11
2022-08-31T04:18:33.276Z,1006.94
2022-08-31T04:19:02.427Z,1006.94
2022-08-31T04:19:33.383Z,1006.94
2022-08-31T04:19:51.384Z,1006.94
2022-08-31T04:20:29.434Z,1006.94
2022-08-31T04:20:40.075Z,1007.01
2022-08-31T04:21:10.451Z,1007.01
2022-08-31T04:21:33.276Z,1007.01
2022-08-31T04:21:59.628Z,1007.01
2022-08-31T04:22:30.572Z,1007.01
2022-08-31T04:23:02.467Z,1007.01
2022-08-31T04:23:35.616Z,1006.94
2022-08-31T04:24:06.512Z,1006.94
2022-08-31T04:24:33.372Z,1006.84
2022-08-31T04:24:55.227Z,1006.84
2022-08-31T04:25:26.551Z,1006.84
2022-08-31T04:25:59.335Z,1007.01
2022-08-31T04:26:30.428Z,1007.01
2022-08-31T04:27:04.782Z,1007.11
2022-08-31T04:27:34.996Z,1007.01
2022-08-31T04:28:07.230Z,1007.01
2022-08-31T04:28:33.267Z,1006.94
2022-08-31T04:28:55.464Z,1006.94
2022-08-31T04:29:26.579Z,1006.94
2022-08-31T04:29:58.932Z,1007.11
2022-08-31T04:30:30.702Z,1007.11
2022-08-31T04:31:02.525Z,1007.11
2022-08-31T04:31:33.491Z,1007.01
2022-08-31T04:31:50.500Z,1007.01
2022-08-31T04:32:23.383Z,1007.01
2022-08-31T04:32:41.004Z,1006.84
2022-08-31T04:33:10.497Z,1006.84
2022-08-31T04:33:33.293Z,1007.01
2022-08-31T04:33:59.605Z,1007.01
2022-08-31T04:34:30.504Z,1007.01
2022-08-31T04:35:04.234Z,1006.74
2022-08-31T04:35:33.294Z,1007.01
2022-08-31T04:35:50.814Z,1007.01
2022-08-31T04:36:24.049Z,1007.01
2022-08-31T04:36:42.052Z,1007.01
2022-08-31T04:37:10.418Z,1007.01
2022-08-31T04:37:35.679Z,1006.94
2022-08-31T04:37:58.664Z,1006.94
2022-08-31T04:38:32.348Z,1006.94
2022-08-31T04:39:03.355Z,1006.94
2022-08-31T04:39:33.274Z,1006.84
2022-08-31T04:39:52.673Z,1006.84
2022-08-31T04:40:25.951Z,1006.84
2022-08-31T04:40:40.614Z,1006.74
2022-08-31T04:41:10.590Z,1006.74
2022-08-31T04:41:33.327Z,1006.94
2022-08-31T04:41:58.419Z,1006.94
2022-08-31T04:42:30.470Z,1006.94
2022-08-31T04:43:03.449Z,1006.84
2022-08-31T04:43:33.299Z,1006.94
2022-08-31T04:43:50.736Z,1006.94
2022-08-31T04:44:23.228Z,1006.94
2022-08-31T04:44:42.033Z,1006.84
2022-08-31T04:45:10.644Z,1006.84
2022-08-31T04:45:35.159Z,1006.84
2022-08-31T04:45:58.628Z,1006.84
2022-08-31T04:46:31.224Z,1006.84
2022-08-31T04:47:02.507Z,1006.94
2022-08-31T04:47:35.926Z,1006.94
2022-08-31T04:48:06.459Z,1006.94
2022-08-31T04:48:33.290Z,1006.74
2022-08-31T04:48:55.220Z,1006.74
2022-08-31T04:49:26.496Z,1006.74
2022-08-31T04:49:59.117Z,1007.01
2022-08-31T04:50:30.527Z,1007.01
2022-08-31T04:51:04.264Z,1006.94
2022-08-31T04:51:33.381Z,1006.94
2022-08-31T04:51:50.662Z,1006.94
2022-08-31T04:52:28.402Z,1006.94
2022-08-31T04:52:39.527Z,1006.84
2022-08-31T04:53:27.285Z,1006.84
2022-08-31T04:53:58.540Z,1006.84
2022-08-31T04:54:32.075Z,1006.84
2022-08-31T04:55:02.577Z,1006.94
2022-08-31T04:55:49.097Z,1006.74
2022-08-31T04:56:07.473Z,1006.74
2022-08-31T04:56:33.475Z,1006.74
2022-08-31T04:56:54.405Z,1006.74
2022-08-31T04:57:27.382Z,1006.74
2022-08-31T04:57:58.498Z,1006.74
2022-08-31T04:58:30.551Z,1006.74
2022-08-31T04:59:03.158Z,1006.94
2022-08-31T04:59:33.297Z,1006.74
2022-08-31T04:59:50.459Z,1006.74
2022-08-31T05:00:23.469Z,1006.74
2022-08-31T05:00:41.016Z,1007.01
2022-08-31T05:01:10.439Z,1007.01
2022-08-31T05:01:42.325Z,1006.94
2022-08-31T05:01:58.549Z,1006.94
2022-08-31T05:02:31.161Z,1006.94
2022-08-31T05:03:02.632Z,1006.94
2022-08-31T05:03:34.262Z,1006.84
2022-08-31T05:04:06.460Z,1006.84
2022-08-31T05:04:35.982Z,1007.01
2022-08-31T05:04:55.219Z,1007.01
2022-08-31T05:05:27.413Z,1007.01
2022-08-31T05:05:59.366Z,1006.84
2022-08-31T05:06:30.563Z,1006.84
2022-08-31T05:07:03.675Z,1006.94
2022-08-31T05:07:33.346Z,1006.84
2022-08-31T05:08:07.512Z,1006.84
2022-08-31T05:08:34.257Z,1006.94
2022-08-31T05:08:54.615Z,1006.94
2022-08-31T05:09:26.584Z,1006.94
2022-08-31T05:09:58.541Z,1006.84
2022-08-31T05:10:30.658Z,1006.84
2022-08-31T05:11:02.599Z,1006.94
2022-08-31T05:11:33.316Z,1006.84
2022-08-31T05:11:50.484Z,1006.84
2022-08-31T05:12:23.526Z,1006.84
2022-08-31T05:12:41.731Z,1006.74
2022-08-31T05:13:10.672Z,1006.74
2022-08-31T05:13:33.442Z,1006.94
2022-08-31T05:13:58.481Z,1006.94
2022-08-31T05:14:34.374Z,1006.94
2022-08-31T05:15:02.790Z,1007.01
2022-08-31T05:15:33.571Z,1006.74
2022-08-31T05:15:55.023Z,1006.74
2022-08-31T05:16:22.632Z,1006.74
2022-08-31T05:16:39.629Z,1006.64
2022-08-31T05:17:14.743Z,1006.64
2022-08-31T05:17:33.350Z,1006.94
2022-08-31T05:17:59.211Z,1006.94
2022-08-31T05:18:30.495Z,1006.94
2022-08-31T05:19:02.644Z,1006.94
2022-08-31T05:19:35.172Z,1006.74
2022-08-31T05:19:50.486Z,1006.74
2022-08-31T05:20:23.634Z,1006.74
2022-08-31T05:20:41.597Z,1006.94
2022-08-31T05:21:10.592Z,1006.94
2022-08-31T05:21:33.351Z,1006.84
2022-08-31T05:21:58.504Z,1006.84
2022-08-31T05:22:31.405Z,1006.84
2022-08-31T05:23:02.586Z,1006.74
2022-08-31T05:23:35.282Z,1006.84
2022-08-31T05:24:06.480Z,1006.84
2022-08-31T05:24:33.357Z,1006.74
2022-08-31T05:24:56.700Z,1006.74
2022-08-31T05:25:26.689Z,1006.74
2022-08-31T05:26:00.121Z,1006.74
2022-08-31T05:26:30.450Z,1006.74
2022-08-31T05:27:03.605Z,1006.84
2022-08-31T05:27:33.469Z,1006.84
2022-08-31T05:27:50.545Z,1006.84
2022-08-31T05:28:22.459Z,1006.84
2022-08-31T05:28:39.586Z,1006.84
2022-08-31T05:29:12.289Z,1006.84
2022-08-31T05:29:35.262Z,1006.74
2022-08-31T05:29:58.552Z,1006.74
2022-08-31T05:30:31.852Z,1006.74
2022-08-31T05:31:02.513Z,1006.84
2022-08-31T05:31:34.497Z,1006.84
2022-08-31T05:32:07.541Z,1006.84
2022-08-31T05:32:34.017Z,1006.74
2022-08-31T05:32:54.469Z,1006.74
2022-08-31T05:33:27.604Z,1006.74
2022-08-31T05:33:58.583Z,1006.94
2022-08-31T05:34:31.190Z,1006.94
2022-08-31T05:35:03.444Z,1006.84
2022-08-31T05:35:34.211Z,1006.84
2022-08-31T05:36:06.530Z,1006.84
2022-08-31T05:36:34.969Z,1006.84
2022-08-31T05:36:54.507Z,1006.84
2022-08-31T05:37:26.456Z,1006.84
2022-08-31T05:37:58.855Z,1006.84
2022-08-31T05:38:31.392Z,1006.84
2022-08-31T05:39:03.363Z,1006.74
2022-08-31T05:39:33.397Z,1006.84
2022-08-31T05:39:50.503Z,1006.84
2022-08-31T05:40:23.579Z,1006.84